Historyczne dane pomiarowe

Dodano dane terminowe – wersja testowa.

Dane z okresu 1951-2019

Wersja bazy: 1.34 [2019-03-16, lista zmian], aktualizacja planowana na 2019-04-15

Dane meteo z obszaru Polski uzyskane na podstawie danych udostępnionych przez Instytut Meteorologii i Gospodarki Wodnej – Państwowy Instytut Badawczy.

 

Wybierz Datę:    

       

TemperaturaWilgotnośćWiatrCiśnienieOpadyŚniegCzas trwania zjawisk
 Stacja t tx tn tng RH VA  wxwx mslp ppp RRR   cm mm wxwxwxwxwxwxwx
1994-08-14 15.4 19.7 12.9 10.6 71.8- 1.3 3.3---- 0.0------------
1994-08-13 17.5 23.0 14.9 14.9 85.5- 4.0 2.0---- 6.0------------
1994-08-12 17.7 22.2 13.5 11.4 87.8- 4.3 2.0---- 1.8------------
1994-08-11 18.4 22.2 16.4 14.3 93.3- 4.7 1.3---- 4.5------------
1994-08-10 19.8 27.3 13.8 11.2 75.8- 3.3 1.3---- 15.0------------
1994-08-09 19.4 23.2 17.9 16.4 93.0- 5.7 2.7---- 3.0------------
1994-08-08 22.6 29.9 18.8 16.9 81.5- 4.3 0.0---- 2.0------------
1994-08-07 24.0 32.3 20.8 17.0 71.0- 3.7 0.7---- 0.0------------
1994-08-06 24.8 33.3 13.9 10.4 68.5- 2.0 0.7---- 0.0------------
1994-08-05 23.5 31.6 15.8 13.3 73.3- 1.3 0.7---- 0.0------------
1994-08-04 23.3 30.1 18.4 17.4 84.0- 3.0 0.7---- 0.0------------
1994-08-03 24.2 32.1 19.2 17.6 82.3- 2.7 2.0---- 0.0------------
1994-08-02 23.8 31.8 16.2 13.3 83.3- 4.0 0.0---- 1.0------------
1994-08-01 28.0 35.5 17.8 13.8 60.3- 2.3 1.3---- 0.0------------
1994-07-31 25.9 35.0 16.7 12.8 55.5- 1.3 1.3---- 0.0------------
1994-07-30 24.2 35.0 13.9 10.4 54.3- 0.7 0.7---- 0.0------------
1994-07-29 24.4 34.0 13.8 10.2 52.5- 1.3 0.7---- 0.0------------
1994-07-28 24.3 33.6 14.3 11.2 62.0- 2.0 0.7---- 0.0------------
1994-07-27 25.2 33.5 13.3 10.7 53.3- 2.0 0.7---- 0.0------------
1994-07-26 24.7 33.3 14.8 11.7 61.8- 1.3 0.7---- 0.0------------
1994-07-25 22.6 32.1 12.8 11.2 61.8- 0.7 0.7---- 0.0------------
1994-07-24 21.6 30.6 12.9 9.2 52.5- 0.0 0.7---- 0.0------------
1994-07-23 21.3 29.1 11.8 9.7 68.8- 0.0 0.7---- 0.0------------
1994-07-22 20.4 29.6 10.5 8.3 63.8- 0.0 0.7---- 0.0------------
1994-07-21 19.5 27.1 10.7 10.7 66.5- 0.0 0.7---- 0.0------------
1994-07-20 18.8 24.7 12.1 9.8 61.5- 0.0 1.3---- 0.0------------
1994-07-19 19.4 25.1 14.1 12.3 80.3- 3.7 0.7---- 0.0------------
1994-07-18 21.0 27.6 17.7 17.4 84.0- 3.0 0.7---- 5.0------------
1994-07-17 22.4 29.1 18.7 16.4 73.5- 3.7 0.7---- 4.5------------
1994-07-16 23.1 30.9 15.1 11.7 70.3- 2.7 1.3---- 0.0------------
1994-07-15 21.4 28.1 15.4 12.3 76.3- 1.3 1.3---- 0.0------------
1994-07-14 20.7 29.1 14.5 12.3 78.0- 1.7 2.0---- 0.0------------
1994-07-13 19.8 27.6 15.1 10.8 78.8- 1.3 0.7---- 0.0------------
1994-07-12 20.0 26.1 15.5 12.8 80.8- 2.3 1.3---- 0.0------------
1994-07-11 19.0 25.6 14.5 12.8 81.8- 2.7 1.7---- 0.0------------
1994-07-10 17.1 22.4 12.8 12.8 81.3- 3.7 2.7---- 3.0------------
1994-07-09 15.9 17.7 12.5 10.2 81.5- 4.0 2.7---- 15.5------------
1994-07-08 17.0 22.2 14.6 14.6 74.3- 2.7 2.7---- 0.0------------
1994-07-07 18.9 26.6 11.5 9.6 79.5- 2.7 0.7---- 5.6------------
1994-07-06 19.5 25.8 13.3 13.3 65.3- 1.3 0.7---- 0.0------------
1994-07-05 20.4 27.9 12.7 10.2 71.8- 1.0 2.0---- 4.5------------
1994-07-04 20.3 28.8 11.1 7.8 65.8- 0.0 0.7---- 0.0------------
1994-07-03 18.7 25.7 10.5 6.3 65.0- 0.0 1.3---- 0.0------------
1994-07-02 18.9 25.1 10.1 7.3 68.8- 0.0 1.3---- 0.0------------
1994-07-01 19.5 24.6 16.2 15.1 70.0- 1.3 1.7---- 0.0------------
1994-06-30 23.1 29.1 18.4 16.9 78.3- 3.0 2.7---- 2.0------------
1994-06-29 23.9 30.4 17.4 14.8 76.3- 0.7 1.7---- 0.0------------
1994-06-28 24.7 30.5 19.4 15.3 77.5- 1.7 1.7---- 0.0------------
1994-06-27 24.9 32.9 16.4 13.3 67.8- 2.7 0.7---- 0.0------------
1994-06-26 21.4 29.6 9.1 5.3 68.5- 0.7 0.0---- 0.0------------
1994-06-25 16.7 22.4 5.3 2.6 63.3- 0.0 1.0---- 0.0------------
1994-06-24 15.1 21.7 7.9 5.2 58.0- 0.0 2.7---- 0.0------------
1994-06-23 17.9 23.7 15.4 15.4 63.0- 1.3 3.3---- 0.0------------
1994-06-22 18.4 27.5 9.8 6.3 73.3- 2.0 1.3---- 0.0------------
1994-06-21 16.2 22.2 7.9 5.3 72.3- 0.0 0.7---- 0.0------------
1994-06-20 16.9 21.8 12.3 9.2 78.5- 1.7 2.3---- 0.0------------
1994-06-19 17.9 25.1 11.5 10.2 80.0- 3.3 1.3---- 0.0------------
1994-06-18 14.1 21.4 5.3 2.8 82.0- 3.7 1.3---- 9.2------------
1994-06-17 12.0 16.1 10.7 9.4 74.0- 2.3 2.7---- 0.0------------
1994-06-16 13.9 17.8 8.5 5.3 74.3- 3.7 2.7---- 2.8------------
287.1 ms

 

Źródłem pochodzenia danych jest Instytut Meteorologii i Gospodarki Wodnej – Państwowy Instytut Badawczy. Dane Instytutu Meteorologii i Gospodarki Wodnej – Państwowego Instytutu Badawczego zostały przetworzone.

Dane źródłowe można odnaleźć na stronie https://dane.imgw.pl